createdAt,value
2018-07-17T00:02:24.254Z,8.27
2018-07-17T00:04:52.566Z,6.30
2018-07-17T00:07:20.871Z,7.97
2018-07-17T00:09:49.173Z,7.53
2018-07-17T00:12:17.548Z,6.23
2018-07-17T00:14:45.867Z,8.73
2018-07-17T00:17:14.191Z,7.67
2018-07-17T00:19:42.498Z,6.80
2018-07-17T00:22:10.819Z,6.90
2018-07-17T00:24:39.061Z,9.10
2018-07-17T00:27:07.321Z,9.73
2018-07-17T00:29:35.606Z,7.93
2018-07-17T00:32:03.877Z,8.43
2018-07-17T00:34:32.203Z,8.47
2018-07-17T00:37:00.510Z,7.77
2018-07-17T00:39:28.770Z,9.73
2018-07-17T00:41:57.072Z,6.73
2018-07-17T00:44:25.346Z,8.77
2018-07-17T00:46:53.641Z,6.80
2018-07-17T00:49:21.961Z,7.30
2018-07-17T00:51:50.234Z,11.00
2018-07-17T00:54:18.513Z,7.27
2018-07-17T00:56:46.778Z,6.90
2018-07-17T00:59:15.070Z,7.77
2018-07-17T01:01:48.679Z,7.57
2018-07-17T01:04:22.149Z,7.80
2018-07-17T01:06:55.849Z,6.90
2018-07-17T01:09:29.365Z,7.23
2018-07-17T01:12:03.194Z,8.33
2018-07-17T01:14:41.834Z,6.77
2018-07-17T01:17:10.278Z,8.10
2018-07-17T01:19:38.933Z,8.50
2018-07-17T01:22:07.467Z,7.60
2018-07-17T01:24:35.737Z,8.00
2018-07-17T01:27:04.097Z,10.73
2018-07-17T01:29:32.395Z,8.17
2018-07-17T01:32:00.643Z,7.90
2018-07-17T01:34:28.893Z,7.80
2018-07-17T01:36:57.193Z,8.77
2018-07-17T01:39:25.459Z,9.27
2018-07-17T01:41:53.708Z,8.63
2018-07-17T01:44:21.969Z,11.07
2018-07-17T01:46:50.259Z,8.13
2018-07-17T01:49:18.538Z,9.80
2018-07-17T01:51:46.796Z,8.70
2018-07-17T01:54:15.095Z,8.47
2018-07-17T01:56:43.364Z,9.93
2018-07-17T01:59:11.915Z,8.43
2018-07-17T02:01:40.186Z,9.77
2018-07-17T02:04:08.451Z,9.20
2018-07-17T02:06:36.741Z,8.80
2018-07-17T02:09:06.262Z,9.30
2018-07-17T02:11:34.583Z,8.43
2018-07-17T02:14:02.887Z,8.70
2018-07-17T02:16:31.400Z,9.57
2018-07-17T02:18:59.806Z,12.60
2018-07-17T02:21:28.347Z,7.73
2018-07-17T02:23:56.595Z,14.27
2018-07-17T02:26:24.840Z,8.90
2018-07-17T02:28:53.122Z,8.13
2018-07-17T02:31:21.398Z,8.77
2018-07-17T02:33:49.646Z,8.37
2018-07-17T02:36:17.943Z,8.83
2018-07-17T02:38:46.183Z,10.40
2018-07-17T02:41:14.466Z,9.10
2018-07-17T02:43:42.734Z,9.43
2018-07-17T02:46:11.189Z,8.07
2018-07-17T02:48:39.474Z,9.73
2018-07-17T02:51:08.595Z,8.63
2018-07-17T02:53:36.913Z,11.17
2018-07-17T02:56:05.247Z,8.57
2018-07-17T02:58:33.841Z,9.20
2018-07-17T03:01:02.107Z,8.43
2018-07-17T03:03:30.373Z,10.83
2018-07-17T03:05:58.677Z,8.37
2018-07-17T03:08:26.929Z,9.73
2018-07-17T03:10:55.170Z,11.70
2018-07-17T03:13:23.420Z,10.00
2018-07-17T03:15:51.743Z,9.53
2018-07-17T03:18:20.006Z,12.33
2018-07-17T03:20:48.287Z,10.07
2018-07-17T03:23:16.584Z,9.73
2018-07-17T03:25:44.882Z,10.70
2018-07-17T03:28:13.136Z,10.10
2018-07-17T03:30:41.403Z,10.33
2018-07-17T03:33:09.702Z,8.90
2018-07-17T03:35:37.956Z,10.60
2018-07-17T03:38:06.223Z,11.40
2018-07-17T03:40:34.476Z,11.60
2018-07-17T03:43:02.746Z,12.10
2018-07-17T03:45:31.010Z,11.53
2018-07-17T03:47:59.321Z,12.50
2018-07-17T03:50:27.652Z,11.03
2018-07-17T03:52:55.947Z,10.67
2018-07-17T03:55:24.257Z,11.57
2018-07-17T03:57:52.577Z,11.43
2018-07-17T04:00:20.872Z,9.80
2018-07-17T04:02:49.209Z,9.83
2018-07-17T04:05:17.443Z,11.80
2018-07-17T04:07:45.790Z,10.40
2018-07-17T04:10:16.084Z,10.87
2018-07-17T04:12:44.336Z,10.77
2018-07-17T04:15:12.688Z,12.13
2018-07-17T04:17:40.945Z,12.63
2018-07-17T04:20:09.234Z,12.03
2018-07-17T04:22:37.611Z,14.37
2018-07-17T04:25:05.871Z,13.30
2018-07-17T04:27:34.162Z,14.90
2018-07-17T04:30:02.765Z,15.67
2018-07-17T04:32:31.067Z,15.00
2018-07-17T04:34:59.369Z,15.43
2018-07-17T04:37:27.684Z,18.37
2018-07-17T04:39:55.985Z,16.83
2018-07-17T04:42:24.531Z,15.87
2018-07-17T04:44:52.782Z,15.53
2018-07-17T04:47:21.159Z,17.13
2018-07-17T04:49:49.506Z,15.03
2018-07-17T04:52:17.788Z,16.70
2018-07-17T04:54:46.085Z,17.43
2018-07-17T04:57:14.334Z,18.93
2018-07-17T04:59:42.605Z,20.67
2018-07-17T05:02:11.110Z,17.63
2018-07-17T05:04:39.388Z,19.77
2018-07-17T05:07:08.030Z,20.50
2018-07-17T05:09:36.451Z,20.00
2018-07-17T05:12:04.766Z,17.73
2018-07-17T05:14:33.128Z,17.87
2018-07-17T05:17:01.538Z,18.33
2018-07-17T05:19:29.825Z,19.33
2018-07-17T05:21:58.162Z,19.27
2018-07-17T05:24:26.427Z,19.57
2018-07-17T05:26:54.929Z,19.23
2018-07-17T05:29:23.202Z,24.00
2018-07-17T05:31:51.601Z,23.90
2018-07-17T05:34:19.893Z,21.47
2018-07-17T05:36:48.190Z,21.53
2018-07-17T05:39:16.516Z,19.53
2018-07-17T05:41:44.755Z,22.27
2018-07-17T05:44:13.083Z,18.20
2018-07-17T05:46:41.390Z,18.57
2018-07-17T05:49:09.678Z,19.80
2018-07-17T05:51:38.202Z,16.07
2018-07-17T05:54:06.517Z,18.27
2018-07-17T05:56:34.824Z,16.13
2018-07-17T05:59:03.414Z,18.37
2018-07-17T06:01:31.699Z,19.27
2018-07-17T06:03:59.994Z,15.60
2018-07-17T06:06:28.302Z,20.60
2018-07-17T06:08:56.693Z,15.63
2018-07-17T06:11:24.955Z,14.73
2018-07-17T06:13:53.204Z,17.57
2018-07-17T06:16:21.470Z,16.17
2018-07-17T06:18:50.054Z,15.77
2018-07-17T06:21:18.412Z,19.13
2018-07-17T06:23:46.719Z,18.93
2018-07-17T06:26:14.996Z,16.97
2018-07-17T06:28:43.573Z,15.03
2018-07-17T06:31:11.829Z,16.23
2018-07-17T06:33:40.096Z,13.73
2018-07-17T06:36:08.404Z,14.23
2018-07-17T06:38:36.740Z,14.43
2018-07-17T06:41:05.045Z,13.53
2018-07-17T06:43:33.334Z,13.47
2018-07-17T06:46:01.707Z,12.30
2018-07-17T06:48:29.966Z,12.70
2018-07-17T06:50:58.265Z,17.80
2018-07-17T06:53:26.526Z,11.13
2018-07-17T06:55:54.805Z,11.90
2018-07-17T06:58:23.108Z,10.63
2018-07-17T07:00:51.496Z,11.20
2018-07-17T07:03:19.801Z,11.33
2018-07-17T07:05:48.089Z,10.77
2018-07-17T07:08:16.740Z,10.57
2018-07-17T07:10:45.040Z,9.80
2018-07-17T07:13:13.347Z,12.07
2018-07-17T07:15:41.581Z,19.00
2018-07-17T07:18:09.849Z,9.70
2018-07-17T07:20:38.316Z,9.37
2018-07-17T07:23:07.067Z,10.43
2018-07-17T07:25:35.336Z,9.73
2018-07-17T07:28:03.693Z,10.50
2018-07-17T07:30:31.992Z,10.43
2018-07-17T07:33:00.280Z,12.70
2018-07-17T07:35:28.598Z,10.73
2018-07-17T07:37:56.887Z,13.93
2018-07-17T07:40:25.181Z,10.03
2018-07-17T07:42:53.517Z,12.37
2018-07-17T07:45:21.720Z,11.73
2018-07-17T07:47:50.007Z,8.07
2018-07-17T07:50:19.287Z,13.97
2018-07-17T07:52:47.615Z,8.60
2018-07-17T07:55:15.901Z,12.20
2018-07-17T07:57:44.203Z,11.60
2018-07-17T08:00:12.683Z,9.43
2018-07-17T08:02:40.974Z,9.17
2018-07-17T08:05:09.378Z,9.10
2018-07-17T08:07:37.692Z,10.80
2018-07-17T08:10:06.811Z,10.27
2018-07-17T08:12:35.119Z,7.67
2018-07-17T08:15:03.409Z,8.90
2018-07-17T08:17:31.796Z,8.87
2018-07-17T08:20:00.128Z,7.73
2018-07-17T08:22:28.397Z,6.03
2018-07-17T08:24:56.700Z,8.80
2018-07-17T08:27:25.000Z,7.53
2018-07-17T08:29:53.254Z,7.63
2018-07-17T08:32:21.529Z,7.63
2018-07-17T08:34:49.785Z,7.23
2018-07-17T08:37:18.081Z,8.70
2018-07-17T08:39:48.502Z,7.13
2018-07-17T08:42:16.824Z,7.40
2018-07-17T08:44:45.099Z,7.60
2018-07-17T08:47:13.414Z,10.03
2018-07-17T08:49:41.815Z,7.40
2018-07-17T08:52:10.085Z,7.47
2018-07-17T08:54:38.558Z,7.03
2018-07-17T08:57:06.716Z,8.73
2018-07-17T08:59:35.111Z,7.47
2018-07-17T09:02:03.401Z,10.63
2018-07-17T09:04:31.637Z,6.83
2018-07-17T09:06:59.951Z,7.40
2018-07-17T09:09:28.254Z,7.73
2018-07-17T09:11:56.516Z,5.87
2018-07-17T09:14:24.799Z,8.57
2018-07-17T09:16:53.092Z,6.23
2018-07-17T09:19:21.399Z,7.83
2018-07-17T09:21:49.710Z,9.80
2018-07-17T09:24:18.067Z,7.17
2018-07-17T09:26:46.388Z,6.30
2018-07-17T09:29:14.666Z,8.23
2018-07-17T09:31:42.902Z,9.13
2018-07-17T09:34:11.209Z,8.40
2018-07-17T09:36:39.724Z,7.77
2018-07-17T09:39:09.027Z,7.77
2018-07-17T09:41:37.277Z,6.27
2018-07-17T09:44:05.602Z,8.43
2018-07-17T09:46:33.822Z,5.90
2018-07-17T09:49:02.082Z,6.63
2018-07-17T09:51:30.396Z,8.13
2018-07-17T09:53:58.703Z,7.47
2018-07-17T09:56:26.951Z,7.43
2018-07-17T09:58:55.474Z,7.57
2018-07-17T10:01:29.066Z,7.97
2018-07-17T10:03:57.550Z,7.07
2018-07-17T10:06:25.875Z,7.40
2018-07-17T10:08:54.101Z,10.03
2018-07-17T10:11:22.429Z,9.87
2018-07-17T10:13:50.709Z,10.07
2018-07-17T10:16:18.960Z,8.67
2018-07-17T10:18:47.238Z,7.33
2018-07-17T10:21:15.505Z,8.53
2018-07-17T10:23:43.831Z,7.83
2018-07-17T10:26:12.056Z,7.13
2018-07-17T10:28:40.329Z,6.43
2018-07-17T10:31:08.632Z,6.20
2018-07-17T10:33:36.920Z,6.10
2018-07-17T10:36:05.253Z,7.93
2018-07-17T10:38:33.517Z,7.40
2018-07-17T10:41:01.795Z,6.23
2018-07-17T10:43:30.041Z,6.50
2018-07-17T10:45:58.359Z,5.53
2018-07-17T10:48:26.608Z,5.53
2018-07-17T10:50:54.895Z,6.80
2018-07-17T10:53:23.271Z,6.63
2018-07-17T10:55:51.581Z,5.07
2018-07-17T10:58:19.862Z,5.87
2018-07-17T11:00:48.139Z,6.53
2018-07-17T11:03:16.447Z,6.47
2018-07-17T11:05:44.725Z,5.53
2018-07-17T11:08:13.084Z,5.20
2018-07-17T11:10:41.408Z,5.83
2018-07-17T11:13:09.665Z,6.37
2018-07-17T11:15:37.994Z,5.17
2018-07-17T11:18:06.322Z,5.47
2018-07-17T11:20:36.484Z,10.00
2018-07-17T11:23:04.764Z,6.43
2018-07-17T11:25:33.071Z,5.67
2018-07-17T11:28:01.444Z,7.43
2018-07-17T11:30:29.769Z,9.17
2018-07-17T11:32:58.077Z,5.83
2018-07-17T11:35:26.347Z,7.07
2018-07-17T11:37:54.674Z,8.43
2018-07-17T11:40:22.911Z,7.30
2018-07-17T11:42:51.289Z,5.50
2018-07-17T11:45:19.596Z,6.10
2018-07-17T11:47:47.922Z,5.10
2018-07-17T11:50:16.150Z,7.23
2018-07-17T11:52:44.539Z,4.93
2018-07-17T11:55:12.819Z,5.00
2018-07-17T11:57:41.140Z,4.93
2018-07-17T12:00:09.460Z,7.53
2018-07-17T12:02:37.738Z,5.27
2018-07-17T12:05:06.201Z,4.90
2018-07-17T12:07:34.588Z,7.67
2018-07-17T12:10:03.096Z,4.73
2018-07-17T12:12:31.462Z,6.30
2018-07-17T12:14:59.760Z,5.80
2018-07-17T12:17:28.055Z,4.70
2018-07-17T12:19:56.488Z,4.87
2018-07-17T12:22:24.666Z,5.20
2018-07-17T12:24:53.173Z,7.80
2018-07-17T12:27:21.523Z,5.10
2018-07-17T12:29:49.775Z,5.43
2018-07-17T12:32:18.139Z,4.97
2018-07-17T12:34:46.480Z,5.93
2018-07-17T12:37:14.847Z,4.70
2018-07-17T12:39:43.399Z,5.97
2018-07-17T12:42:11.700Z,5.23
2018-07-17T12:44:40.159Z,4.53
2018-07-17T12:47:08.428Z,5.07
2018-07-17T12:49:36.730Z,6.40
2018-07-17T12:52:04.981Z,4.10
2018-07-17T12:54:33.301Z,4.23
2018-07-17T12:57:01.606Z,5.33
2018-07-17T12:59:29.880Z,5.43
2018-07-17T13:01:58.251Z,4.20
2018-07-17T13:04:26.516Z,4.37
2018-07-17T13:06:54.801Z,5.53
2018-07-17T13:09:23.128Z,5.23
2018-07-17T13:11:51.452Z,4.50
2018-07-17T13:14:19.747Z,4.60
2018-07-17T13:16:48.114Z,3.83
2018-07-17T13:19:16.392Z,6.90
2018-07-17T13:21:44.713Z,4.43
2018-07-17T13:24:12.998Z,5.23
2018-07-17T13:26:41.306Z,3.97
2018-07-17T13:29:09.712Z,3.73
2018-07-17T13:31:38.037Z,5.40
2018-07-17T13:34:06.358Z,4.03
2018-07-17T13:36:34.894Z,4.23
2018-07-17T13:39:03.266Z,4.30
2018-07-17T13:41:31.595Z,4.20
2018-07-17T13:44:00.069Z,4.60
2018-07-17T13:46:28.620Z,4.27
2018-07-17T13:48:57.046Z,4.23
2018-07-17T13:51:25.416Z,5.07
2018-07-17T13:53:53.674Z,4.30
2018-07-17T13:56:22.034Z,5.70
2018-07-17T13:58:50.323Z,3.27
2018-07-17T14:01:18.926Z,4.67
2018-07-17T14:03:47.215Z,5.67
2018-07-17T14:06:15.536Z,10.33
2018-07-17T14:08:43.888Z,8.53
2018-07-17T14:11:12.147Z,10.33
2018-07-17T14:13:40.591Z,12.73
2018-07-17T14:16:08.853Z,9.90
2018-07-17T14:18:37.565Z,13.13
2018-07-17T14:21:05.889Z,10.90
2018-07-17T14:23:34.277Z,8.73
2018-07-17T14:26:02.895Z,13.73
2018-07-17T14:28:31.173Z,8.33
2018-07-17T14:30:59.443Z,9.50
2018-07-17T14:33:27.735Z,9.63
2018-07-17T14:35:56.028Z,8.20
2018-07-17T14:38:24.316Z,9.90
2018-07-17T14:40:52.626Z,8.60
2018-07-17T14:43:20.932Z,8.43
2018-07-17T14:45:49.187Z,11.93
2018-07-17T14:48:17.601Z,6.90
2018-07-17T14:50:45.888Z,9.60
2018-07-17T14:53:14.217Z,7.90
2018-07-17T14:55:42.510Z,7.53
2018-07-17T14:58:10.872Z,8.40
2018-07-17T15:00:39.165Z,7.80
2018-07-17T15:03:07.455Z,7.23
2018-07-17T15:05:35.772Z,7.53
2018-07-17T15:08:05.093Z,9.60
2018-07-17T15:10:33.398Z,11.97
2018-07-17T15:13:01.806Z,7.83
2018-07-17T15:15:30.174Z,7.10
2018-07-17T15:17:58.758Z,7.23
2018-07-17T15:20:27.193Z,8.97
2018-07-17T15:22:55.466Z,7.57
2018-07-17T15:25:23.863Z,8.17
2018-07-17T15:27:52.296Z,9.13
2018-07-17T15:30:20.558Z,7.13
2018-07-17T15:32:48.811Z,8.70
2018-07-17T15:35:17.241Z,10.47
2018-07-17T15:37:45.437Z,5.90
2018-07-17T15:40:13.738Z,7.37
2018-07-17T15:42:42.050Z,5.80
2018-07-17T15:45:10.574Z,6.27
2018-07-17T15:47:39.522Z,7.20
2018-07-17T15:50:07.788Z,8.57
2018-07-17T15:52:36.129Z,8.17
2018-07-17T15:55:04.404Z,7.07
2018-07-17T15:57:32.757Z,7.70
2018-07-17T16:00:01.104Z,8.80
2018-07-17T16:02:29.375Z,7.57
2018-07-17T16:04:57.815Z,6.27
2018-07-17T16:07:26.141Z,11.17
2018-07-17T16:09:54.520Z,8.20
2018-07-17T16:12:22.810Z,8.67
2018-07-17T16:14:51.187Z,7.87
2018-07-17T16:17:19.513Z,7.37
2018-07-17T16:19:47.768Z,7.03
2018-07-17T16:22:16.080Z,8.07
2018-07-17T16:24:44.366Z,11.50
2018-07-17T16:27:12.673Z,9.07
2018-07-17T16:29:40.957Z,11.20
2018-07-17T16:32:09.333Z,9.23
2018-07-17T16:34:37.618Z,10.13
2018-07-17T16:37:06.041Z,11.33
2018-07-17T16:39:34.905Z,11.17
2018-07-17T16:42:03.394Z,9.20
2018-07-17T16:44:31.650Z,9.20
2018-07-17T16:46:59.937Z,10.77
2018-07-17T16:49:28.467Z,6.73
2018-07-17T16:51:56.768Z,9.50
2018-07-17T16:54:25.046Z,8.20
2018-07-17T16:56:53.319Z,11.13
2018-07-17T16:59:22.033Z,7.80
2018-07-17T17:01:50.273Z,6.03
2018-07-17T17:04:18.527Z,8.27
2018-07-17T17:06:46.833Z,7.17
2018-07-17T17:09:15.161Z,6.30
2018-07-17T17:11:43.486Z,7.37
2018-07-17T17:14:11.757Z,6.00
2018-07-17T17:16:40.354Z,11.50
2018-07-17T17:19:08.735Z,7.37
2018-07-17T17:21:37.515Z,8.53
2018-07-17T17:24:06.428Z,11.77
2018-07-17T17:26:35.512Z,9.67
2018-07-17T17:29:03.757Z,6.67
2018-07-17T17:31:32.161Z,6.13
2018-07-17T17:34:00.449Z,7.13
2018-07-17T17:36:28.758Z,7.37
2018-07-17T17:38:57.115Z,9.00
2018-07-17T17:41:25.393Z,8.10
2018-07-17T17:43:53.711Z,7.47
2018-07-17T17:46:22.032Z,6.43
2018-07-17T17:48:50.364Z,8.27
2018-07-17T17:51:18.700Z,6.93
2018-07-17T17:53:47.042Z,6.50
2018-07-17T17:56:15.328Z,8.00
2018-07-17T17:58:43.647Z,7.90
2018-07-17T18:01:11.889Z,8.23
2018-07-17T18:03:40.203Z,6.80
2018-07-17T18:06:08.509Z,8.73
2018-07-17T18:08:36.771Z,7.70
2018-07-17T18:11:05.136Z,6.93
2018-07-17T18:13:33.392Z,13.57
2018-07-17T18:16:01.713Z,8.43
2018-07-17T18:18:30.058Z,9.60
2018-07-17T18:20:58.316Z,12.67
2018-07-17T18:23:26.620Z,10.97
2018-07-17T18:25:54.901Z,7.03
2018-07-17T18:28:23.334Z,9.87
2018-07-17T18:30:51.677Z,10.00
2018-07-17T18:33:19.995Z,12.03
2018-07-17T18:35:48.393Z,9.83
2018-07-17T18:38:16.673Z,9.47
2018-07-17T18:40:45.170Z,7.10
2018-07-17T18:43:13.433Z,7.27
2018-07-17T18:45:41.703Z,10.60
2018-07-17T18:48:10.310Z,10.40
2018-07-17T18:50:39.048Z,10.23
2018-07-17T18:53:07.448Z,6.57
2018-07-17T18:55:35.726Z,8.37
2018-07-17T18:58:04.057Z,7.57
2018-07-17T19:00:32.359Z,12.70
2018-07-17T19:03:00.697Z,7.83
2018-07-17T19:05:28.997Z,9.63
2018-07-17T19:07:57.311Z,7.13
2018-07-17T19:10:25.599Z,8.70
2018-07-17T19:12:53.919Z,7.60
2018-07-17T19:15:22.251Z,8.03
2018-07-17T19:17:50.564Z,6.67
2018-07-17T19:20:18.866Z,11.17
2018-07-17T19:22:47.148Z,11.10
2018-07-17T19:25:15.393Z,7.50
2018-07-17T19:27:43.893Z,10.27
2018-07-17T19:30:12.165Z,8.73
2018-07-17T19:32:40.455Z,9.80
2018-07-17T19:35:08.831Z,8.77
2018-07-17T19:37:37.104Z,11.17
2018-07-17T19:40:06.220Z,9.93
2018-07-17T19:42:34.580Z,9.47
2018-07-17T19:45:02.837Z,9.80
2018-07-17T19:47:31.227Z,7.13
2018-07-17T19:49:59.481Z,8.77
2018-07-17T19:52:27.797Z,8.47
2018-07-17T19:54:56.122Z,9.93
2018-07-17T19:57:24.472Z,8.67
2018-07-17T19:59:52.911Z,7.27
2018-07-17T20:02:21.200Z,7.60
2018-07-17T20:04:49.538Z,8.23
2018-07-17T20:07:17.848Z,10.50
2018-07-17T20:09:46.157Z,10.03
2018-07-17T20:12:14.485Z,7.53
2018-07-17T20:14:42.774Z,6.90
2018-07-17T20:17:11.165Z,10.73
2018-07-17T20:19:39.451Z,10.63
2018-07-17T20:22:07.879Z,8.37
2018-07-17T20:24:36.278Z,7.27
2018-07-17T20:27:04.612Z,8.50
2018-07-17T20:29:33.021Z,8.47
2018-07-17T20:32:01.719Z,6.67
2018-07-17T20:34:30.143Z,7.47
2018-07-17T20:36:58.453Z,6.63
2018-07-17T20:39:26.788Z,8.30
2018-07-17T20:41:55.113Z,6.50
2018-07-17T20:44:23.419Z,7.23
2018-07-17T20:46:51.730Z,8.43
2018-07-17T20:49:20.039Z,9.03
2018-07-17T20:51:51.696Z,9.43
2018-07-17T20:54:20.467Z,7.73
2018-07-17T20:56:48.805Z,9.57
2018-07-17T20:59:17.104Z,8.37
2018-07-17T21:01:45.380Z,7.33
2018-07-17T21:04:13.629Z,6.63
2018-07-17T21:06:41.928Z,8.33
2018-07-17T21:09:11.163Z,9.93
2018-07-17T21:11:39.445Z,7.20
2018-07-17T21:14:07.923Z,8.83
2018-07-17T21:16:36.158Z,8.87
2018-07-17T21:19:04.453Z,9.77
2018-07-17T21:21:32.712Z,12.03
2018-07-17T21:24:00.941Z,9.67
2018-07-17T21:26:29.263Z,12.30
2018-07-17T21:28:57.538Z,10.30
2018-07-17T21:31:26.208Z,9.43
2018-07-17T21:33:54.481Z,11.93
2018-07-17T21:36:22.757Z,8.90
2018-07-17T21:38:51.046Z,11.40
2018-07-17T21:41:19.366Z,9.73
2018-07-17T21:43:47.723Z,13.30
2018-07-17T21:46:16.043Z,8.70
2018-07-17T21:48:44.345Z,11.47
2018-07-17T21:51:12.607Z,9.23
2018-07-17T21:53:40.905Z,8.83
2018-07-17T21:56:09.244Z,8.70
2018-07-17T21:58:37.530Z,8.80
2018-07-17T22:01:05.838Z,9.30
2018-07-17T22:03:34.124Z,9.83
2018-07-17T22:06:02.615Z,9.63
2018-07-17T22:08:30.873Z,10.03
2018-07-17T22:10:59.115Z,11.53
2018-07-17T22:13:27.427Z,10.57
2018-07-17T22:15:55.798Z,9.77
2018-07-17T22:18:24.060Z,9.97
2018-07-17T22:20:52.372Z,8.67
2018-07-17T22:23:20.619Z,11.23
2018-07-17T22:25:48.856Z,10.43
2018-07-17T22:28:17.110Z,9.30
2018-07-17T22:30:45.369Z,9.07
2018-07-17T22:33:13.678Z,14.97
2018-07-17T22:35:41.964Z,10.50
2018-07-17T22:38:10.217Z,14.27
2018-07-17T22:40:38.501Z,12.33
2018-07-17T22:43:06.802Z,10.07
2018-07-17T22:45:35.237Z,11.10
2018-07-17T22:48:03.567Z,10.87
2018-07-17T22:50:31.917Z,11.00
2018-07-17T22:53:00.257Z,11.93
2018-07-17T22:55:28.519Z,13.83
2018-07-17T22:57:56.883Z,14.30
2018-07-17T23:00:25.320Z,11.97
2018-07-17T23:02:53.757Z,12.80
2018-07-17T23:05:22.080Z,13.80
2018-07-17T23:07:50.394Z,14.67
2018-07-17T23:10:18.684Z,12.70
2018-07-17T23:12:46.949Z,12.80
2018-07-17T23:15:15.187Z,18.30
2018-07-17T23:17:43.478Z,14.93
2018-07-17T23:20:11.725Z,17.43
2018-07-17T23:22:58.497Z,17.63
2018-07-17T23:25:28.026Z,15.47
2018-07-17T23:27:57.358Z,14.10
2018-07-17T23:30:25.659Z,14.00
2018-07-17T23:32:54.095Z,18.20
2018-07-17T23:35:23.438Z,14.57
2018-07-17T23:37:52.183Z,15.10
2018-07-17T23:40:20.892Z,18.27
2018-07-17T23:42:49.193Z,14.90
2018-07-17T23:45:18.218Z,16.43
2018-07-17T23:47:47.460Z,15.33
2018-07-17T23:50:15.712Z,17.83
2018-07-17T23:52:43.993Z,15.83
2018-07-17T23:55:12.379Z,16.87
2018-07-17T23:57:40.744Z,17.57
